DXXX/LFW METAR and TAF weather

Enter ICAO airport designator
Station Type Date Time Source
DXXX METAR 2020/09/22 17:00 UTC NOAA

DXXX 221700Z 21014KT 9999 SCT011 FEW020CB 26/23 Q1011 NOSIG


Station Type Date Time Source
DXXX Decoded METAR 2020/09/22 17:00 UTC NOAA

Lome, Togo (DXXX) 06-10N 001-15E 25M
Sep 22, 2020 - 01:00 PM EDT / 2020.09.22 1700 UTC
Wind: from the SSW (210 degrees) at 16 MPH (14 KT):0
Visibility: greater than 7 mile(s):0
Sky conditions: partly cloudy
Weather: Cumulonimbus clouds observed
Temperature: 78 F (26 C)
Dew Point: 73 F (23 C)
Relative Humidity: 83%
Pressure (altimeter): 29.85 in. Hg (1011 hPa)
ob: DXXX 221700Z 21014KT 9999 SCT011 FEW020CB 26/23 Q1011 NOSIG
cycle: 17

Station Type Date Time Source
DXXX TAF 2020/09/22 12:36 UTC NOAA

TAF DXXX 221100Z 2212/2318 22012KT 9999 SCT012
TEMPO 2215/2222 BKN010 FEW020CB PROB30 2217/222 4000 TSRA PROB30
TEMPO 2301/2306 4000 TSRA BKN010 FEW020CB

Example: see airport list